createdAt,value
2022-08-30T04:05:31.783Z,15.71
2022-08-30T04:07:59.752Z,15.65
2022-08-30T04:10:27.458Z,15.63
2022-08-30T04:12:55.060Z,15.60
2022-08-30T04:15:22.632Z,15.62
2022-08-30T04:17:50.269Z,15.59
2022-08-30T04:20:18.016Z,15.53
2022-08-30T04:22:47.554Z,15.52
2022-08-30T04:25:15.692Z,15.52
2022-08-30T04:27:44.027Z,15.51
2022-08-30T04:30:13.042Z,15.45
2022-08-30T04:32:40.724Z,15.52
2022-08-30T04:35:09.321Z,15.55
2022-08-30T04:37:37.840Z,15.59
2022-08-30T04:40:08.430Z,15.59
2022-08-30T04:42:36.798Z,15.65
2022-08-30T04:45:07.357Z,15.59
2022-08-30T04:47:35.256Z,15.61
2022-08-30T04:50:03.819Z,15.62
2022-08-30T04:52:31.496Z,15.64
2022-08-30T04:55:00.449Z,15.61
2022-08-30T04:57:30.770Z,15.63
2022-08-30T04:59:58.471Z,15.63
2022-08-30T05:02:26.111Z,15.62
2022-08-30T05:05:11.612Z,15.64
2022-08-30T05:07:42.023Z,15.60
2022-08-30T05:10:11.503Z,15.62
2022-08-30T05:12:40.807Z,15.70
2022-08-30T05:15:09.618Z,15.71
2022-08-30T05:17:38.542Z,15.60
2022-08-30T05:20:07.494Z,15.54
2022-08-30T05:22:36.652Z,15.52
2022-08-30T05:25:04.997Z,15.55
2022-08-30T05:27:32.733Z,15.59
2022-08-30T05:30:07.230Z,15.64
2022-08-30T05:32:34.848Z,15.72
2022-08-30T05:35:02.529Z,15.79
2022-08-30T05:37:30.181Z,15.73
2022-08-30T05:39:58.008Z,15.73
2022-08-30T05:42:26.874Z,15.73
2022-08-30T05:44:55.323Z,15.73
2022-08-30T05:47:24.337Z,15.77
2022-08-30T05:49:52.242Z,15.79
2022-08-30T05:52:20.041Z,15.77
2022-08-30T05:54:54.246Z,15.71
2022-08-30T05:57:21.975Z,15.73
2022-08-30T05:59:49.612Z,15.76
2022-08-30T06:02:17.793Z,15.82
2022-08-30T06:04:46.751Z,15.80
2022-08-30T06:07:15.849Z,15.81
2022-08-30T06:09:44.947Z,15.84
2022-08-30T06:12:12.608Z,15.84
2022-08-30T06:14:40.249Z,15.79
2022-08-30T06:17:07.962Z,15.86
2022-08-30T06:19:35.569Z,15.89
2022-08-30T06:22:04.650Z,15.89
2022-08-30T06:24:55.850Z,15.93
2022-08-30T06:27:20.022Z,15.99
2022-08-30T06:29:47.624Z,16.02
2022-08-30T06:32:15.182Z,15.95
2022-08-30T06:34:42.880Z,15.94
2022-08-30T06:37:21.949Z,15.91
2022-08-30T06:39:58.840Z,15.97
2022-08-30T06:42:31.791Z,15.98
2022-08-30T06:45:00.414Z,16.02
2022-08-30T06:47:29.250Z,16.04
2022-08-30T06:49:57.670Z,16.08
2022-08-30T06:52:26.713Z,16.11
2022-08-30T06:54:55.070Z,16.11
2022-08-30T06:57:22.658Z,16.03
2022-08-30T06:59:53.152Z,15.97
2022-08-30T07:02:24.779Z,15.92
2022-08-30T07:04:52.768Z,15.94
2022-08-30T07:07:20.615Z,15.98
2022-08-30T07:09:49.757Z,15.99
2022-08-30T07:12:17.851Z,15.97
2022-08-30T07:14:45.485Z,15.99
2022-08-30T07:17:34.552Z,16.09
2022-08-30T07:20:03.392Z,16.14
2022-08-30T07:22:31.018Z,16.22
2022-08-30T07:25:00.244Z,16.21
2022-08-30T07:27:27.948Z,16.17
2022-08-30T07:29:55.872Z,16.19
2022-08-30T07:32:23.468Z,16.26
2022-08-30T07:34:51.713Z,16.37
2022-08-30T07:37:19.493Z,16.41
2022-08-30T07:39:48.207Z,16.46
2022-08-30T07:42:17.609Z,16.51
2022-08-30T07:44:45.563Z,16.49
2022-08-30T07:47:13.212Z,16.53
2022-08-30T07:49:40.807Z,16.61
2022-08-30T07:52:08.490Z,16.68
2022-08-30T07:54:36.147Z,16.70
2022-08-30T07:57:03.720Z,16.80
2022-08-30T07:59:35.629Z,16.89
2022-08-30T08:02:03.939Z,16.96
2022-08-30T08:04:33.053Z,16.99
2022-08-30T08:07:00.834Z,16.99
2022-08-30T08:09:28.535Z,17.03
2022-08-30T08:11:56.313Z,17.04
2022-08-30T08:14:24.088Z,17.08
2022-08-30T08:16:53.346Z,17.13
2022-08-30T08:19:21.279Z,17.09
2022-08-30T08:21:59.393Z,17.12
2022-08-30T08:24:36.901Z,17.09
2022-08-30T08:27:04.637Z,17.11
2022-08-30T08:29:32.541Z,17.11
2022-08-30T08:32:01.472Z,17.03
2022-08-30T08:34:29.029Z,17.05
2022-08-30T08:36:56.618Z,17.18
2022-08-30T08:39:24.199Z,17.27
2022-08-30T08:41:59.572Z,17.22
2022-08-30T08:44:39.306Z,17.22
2022-08-30T08:47:14.003Z,17.25
2022-08-30T08:49:45.666Z,17.23
2022-08-30T08:52:37.973Z,17.32
2022-08-30T08:55:10.408Z,17.43
2022-08-30T08:57:38.234Z,17.39
2022-08-30T09:00:07.109Z,17.38
2022-08-30T09:02:42.013Z,17.41
2022-08-30T09:05:12.233Z,17.43
2022-08-30T09:07:43.400Z,17.45
2022-08-30T09:10:11.139Z,17.48
2022-08-30T09:12:38.820Z,17.50
2022-08-30T09:15:12.785Z,17.43
2022-08-30T09:17:53.887Z,17.34
2022-08-30T09:20:31.214Z,17.38
2022-08-30T09:22:59.658Z,17.44
2022-08-30T09:25:29.809Z,17.44
2022-08-30T09:28:11.553Z,17.47
2022-08-30T09:30:40.670Z,17.54
2022-08-30T09:33:20.909Z,17.63
2022-08-30T09:35:52.012Z,17.67
2022-08-30T09:38:24.404Z,17.76
2022-08-30T09:40:54.724Z,17.78
2022-08-30T09:43:28.487Z,17.75
2022-08-30T09:46:09.325Z,17.43
2022-08-30T09:48:40.629Z,17.56
2022-08-30T09:51:26.714Z,17.67
2022-08-30T09:54:17.463Z,17.74
2022-08-30T09:56:54.737Z,17.78
2022-08-30T09:59:37.885Z,17.77
2022-08-30T10:02:21.920Z,17.80
2022-08-30T10:04:59.060Z,17.85
2022-08-30T10:07:34.386Z,17.80
2022-08-30T10:10:11.403Z,17.74
2022-08-30T10:12:45.364Z,17.54
2022-08-30T10:15:20.035Z,17.62
2022-08-30T10:17:55.918Z,17.78
2022-08-30T10:20:32.587Z,17.85
2022-08-30T10:23:06.808Z,17.93
2022-08-30T10:25:41.688Z,17.86
2022-08-30T10:28:15.363Z,17.82
2022-08-30T10:30:48.902Z,17.80
2022-08-30T10:33:25.520Z,17.97
2022-08-30T10:35:58.410Z,18.09
2022-08-30T10:38:28.501Z,18.14
2022-08-30T10:41:14.252Z,17.93
2022-08-30T10:43:50.925Z,17.91
2022-08-30T10:46:23.729Z,17.97
2022-08-30T10:48:51.354Z,18.08
2022-08-30T10:51:27.986Z,18.09
2022-08-30T10:53:58.460Z,18.09
2022-08-30T10:56:29.510Z,18.15
2022-08-30T10:58:59.123Z,18.24
2022-08-30T11:04:48.558Z,18.42
2022-08-30T11:07:31.403Z,18.47
2022-08-30T11:10:15.146Z,18.52
2022-08-30T11:12:55.710Z,18.63
2022-08-30T11:15:25.917Z,18.76
2022-08-30T11:18:01.487Z,18.75
2022-08-30T11:20:37.542Z,18.73
2022-08-30T11:23:33.015Z,18.79
2022-08-30T11:26:03.972Z,18.91
2022-08-30T11:29:04.562Z,19.04
2022-08-30T11:31:40.623Z,19.19
2022-08-30T11:34:09.161Z,19.28
2022-08-30T11:37:10.122Z,19.36
2022-08-30T11:39:56.004Z,19.48
2022-08-30T11:45:43.857Z,19.65
2022-08-30T11:48:53.694Z,19.84
2022-08-30T11:52:08.205Z,20.11
2022-08-30T11:54:45.984Z,20.06
2022-08-30T11:57:28.468Z,20.14
2022-08-30T12:00:06.249Z,20.24
2022-08-30T12:02:55.583Z,20.38
2022-08-30T12:05:51.444Z,20.57
2022-08-30T12:08:55.189Z,20.74
2022-08-30T12:12:02.473Z,20.97
2022-08-30T12:14:48.707Z,21.08
2022-08-30T12:17:49.027Z,21.34
2022-08-30T12:20:24.259Z,21.44
2022-08-30T12:22:54.107Z,21.53
2022-08-30T12:25:31.428Z,21.61
2022-08-30T12:28:15.441Z,21.80
2022-08-30T12:30:46.704Z,21.93
2022-08-30T12:33:28.952Z,22.02
2022-08-30T12:35:59.150Z,22.08
2022-08-30T12:38:28.222Z,22.11
2022-08-30T12:40:58.488Z,22.23
2022-08-30T12:43:40.241Z,22.31
2022-08-30T12:46:15.354Z,22.38
2022-08-30T12:48:44.902Z,22.51
2022-08-30T12:51:37.852Z,22.65
2022-08-30T12:54:13.801Z,22.80
2022-08-30T12:57:25.560Z,23.00
2022-08-30T12:59:59.717Z,23.09
2022-08-30T13:02:45.410Z,23.23
2022-08-30T13:05:33.063Z,23.31
2022-08-30T13:08:16.807Z,23.43
2022-08-30T13:11:09.530Z,23.61
2022-08-30T13:13:40.942Z,23.63
2022-08-30T13:16:29.574Z,23.68
2022-08-30T13:19:21.015Z,23.74
2022-08-30T13:21:52.458Z,23.95
2022-08-30T13:24:24.826Z,24.06
2022-08-30T13:26:54.844Z,24.16
2022-08-30T13:29:26.291Z,24.16
2022-08-30T13:31:54.344Z,24.19
2022-08-30T13:34:26.447Z,24.30
2022-08-30T13:36:55.887Z,24.51
2022-08-30T13:39:23.838Z,24.60
2022-08-30T13:41:51.887Z,24.70
2022-08-30T13:44:19.781Z,24.83
2022-08-30T13:46:54.682Z,24.88
2022-08-30T13:49:43.503Z,24.97
2022-08-30T13:52:20.907Z,24.99
2022-08-30T13:54:49.835Z,24.84
2022-08-30T13:57:53.571Z,24.72
2022-08-30T14:00:12.189Z,24.42
2022-08-30T14:02:45.393Z,24.61
2022-08-30T14:05:47.001Z,25.01
2022-08-30T14:08:05.401Z,24.89
2022-08-30T14:10:45.672Z,25.17
2022-08-30T14:13:14.525Z,25.35
2022-08-30T14:15:42.235Z,25.43
2022-08-30T14:18:12.558Z,25.50
2022-08-30T14:20:45.083Z,25.48
2022-08-30T14:23:12.723Z,25.13
2022-08-30T14:25:41.039Z,24.97
2022-08-30T14:28:09.549Z,24.78
2022-08-30T14:30:39.073Z,24.60
2022-08-30T14:33:07.235Z,24.59
2022-08-30T14:35:37.049Z,24.53
2022-08-30T14:38:08.721Z,24.33
2022-08-30T14:40:39.890Z,24.09
2022-08-30T14:43:07.503Z,23.89
2022-08-30T14:45:35.156Z,23.75
2022-08-30T14:48:11.334Z,23.72
2022-08-30T14:50:40.605Z,23.61
2022-08-30T14:53:09.554Z,23.53
2022-08-30T14:55:37.479Z,23.49
2022-08-30T14:58:06.843Z,23.46
2022-08-30T15:00:34.476Z,23.39
2022-08-30T15:03:03.493Z,23.35
2022-08-30T15:05:31.781Z,23.35
2022-08-30T15:08:00.424Z,23.32
2022-08-30T15:10:29.449Z,23.31
2022-08-30T15:12:57.065Z,23.33
2022-08-30T15:15:25.234Z,23.34
2022-08-30T15:17:52.893Z,23.33
2022-08-30T15:20:20.832Z,23.26
2022-08-30T15:22:48.604Z,23.25
2022-08-30T15:25:16.210Z,23.24
2022-08-30T15:27:46.488Z,23.22
2022-08-30T15:30:16.986Z,23.18
2022-08-30T15:32:48.286Z,23.03
2022-08-30T15:35:16.476Z,22.87
2022-08-30T15:37:44.214Z,22.84
2022-08-30T15:40:12.260Z,22.83
2022-08-30T15:42:40.899Z,22.78
2022-08-30T15:45:12.377Z,22.76
2022-08-30T15:47:40.020Z,22.78
2022-08-30T15:50:08.944Z,22.73
2022-08-30T15:52:36.846Z,22.72
2022-08-30T15:55:05.600Z,22.73
2022-08-30T15:57:33.721Z,22.74
2022-08-30T16:00:01.622Z,22.69
2022-08-30T16:02:30.781Z,22.63
2022-08-30T16:04:58.422Z,22.59
2022-08-30T16:07:26.038Z,22.57
2022-08-30T16:09:53.869Z,22.56
2022-08-30T16:12:23.710Z,22.52
2022-08-30T16:14:51.820Z,22.43
2022-08-30T16:17:19.536Z,22.37
2022-08-30T16:19:48.486Z,22.32
2022-08-30T16:22:22.000Z,22.27
2022-08-30T16:24:50.180Z,22.25
2022-08-30T16:27:17.858Z,22.24
2022-08-30T16:29:50.061Z,22.18
2022-08-30T16:32:18.563Z,22.15
2022-08-30T16:34:51.353Z,22.14
2022-08-30T16:37:19.371Z,22.16
2022-08-30T16:39:47.093Z,22.12
2022-08-30T16:42:15.001Z,22.06
2022-08-30T16:44:49.821Z,21.99
2022-08-30T16:47:18.508Z,21.98
2022-08-30T16:49:50.304Z,21.93
2022-08-30T16:52:18.603Z,21.97
2022-08-30T16:54:47.085Z,21.94
2022-08-30T16:57:19.922Z,21.91
2022-08-30T16:59:47.824Z,21.88
2022-08-30T17:02:18.653Z,21.82
2022-08-30T17:04:52.346Z,21.77
2022-08-30T17:07:21.565Z,21.73
2022-08-30T17:09:50.601Z,21.68
2022-08-30T17:12:18.379Z,21.66
2022-08-30T17:14:46.168Z,21.60
2022-08-30T17:17:15.253Z,21.58
2022-08-30T17:19:43.739Z,21.51
2022-08-30T17:22:14.357Z,21.46
2022-08-30T17:24:42.155Z,21.43
2022-08-30T17:27:11.380Z,21.42
2022-08-30T17:29:39.620Z,21.38
2022-08-30T17:32:07.594Z,21.36
2022-08-30T17:34:36.759Z,21.36
2022-08-30T17:37:05.126Z,21.36
2022-08-30T17:39:34.140Z,21.33
2022-08-30T17:42:02.083Z,21.30
2022-08-30T17:44:33.102Z,21.31
2022-08-30T17:47:01.457Z,21.33
2022-08-30T17:49:34.287Z,21.36
2022-08-30T17:52:04.159Z,21.35
2022-08-30T17:54:35.808Z,21.33
2022-08-30T17:57:10.734Z,21.34
2022-08-30T17:59:41.521Z,21.33
2022-08-30T18:02:11.286Z,21.35
2022-08-30T18:04:39.516Z,21.37
2022-08-30T18:07:11.839Z,21.33
2022-08-30T18:09:42.493Z,21.31
2022-08-30T18:12:11.103Z,21.30
2022-08-30T18:14:39.466Z,21.25
2022-08-30T18:17:07.980Z,21.20
2022-08-30T19:38:00.254Z,20.15
2022-08-30T19:40:29.212Z,20.16
2022-08-30T19:42:58.240Z,20.16
2022-08-30T19:45:26.226Z,20.17
2022-08-30T19:47:53.890Z,20.11
2022-08-30T19:50:22.913Z,19.96
2022-08-30T19:52:54.064Z,19.90
2022-08-30T19:55:30.058Z,19.81
2022-08-30T19:57:59.116Z,19.76
2022-08-30T20:00:27.467Z,19.70
2022-08-30T20:02:58.932Z,19.63
2022-08-30T20:05:27.081Z,19.61
2022-08-30T20:07:54.978Z,19.62
2022-08-30T20:10:28.049Z,19.61
2022-08-30T20:12:55.767Z,19.59
2022-08-30T20:15:25.562Z,19.61
2022-08-30T20:18:05.134Z,19.62
2022-08-30T20:20:36.652Z,19.63
2022-08-30T20:23:05.402Z,19.55
2022-08-30T20:25:35.952Z,19.54
2022-08-30T20:28:04.381Z,19.50
2022-08-30T20:30:32.095Z,19.47
2022-08-30T20:33:03.709Z,19.42
2022-08-30T20:35:34.046Z,19.37
2022-08-30T20:38:06.275Z,19.35
2022-08-30T20:40:36.936Z,19.26
2022-08-30T20:43:05.477Z,19.20
2022-08-30T20:45:34.239Z,19.11
2022-08-30T20:48:03.648Z,19.08
2022-08-30T20:50:31.339Z,19.06
2022-08-30T20:52:58.963Z,19.03
2022-08-30T20:55:26.706Z,18.90
2022-08-30T20:57:55.681Z,18.85
2022-08-30T21:00:23.766Z,18.84
2022-08-30T21:02:54.622Z,18.78
2022-08-30T21:05:23.443Z,18.81
2022-08-30T21:07:51.067Z,18.74
2022-08-30T21:10:23.570Z,18.69
2022-08-30T21:12:51.535Z,18.67
2022-08-30T21:15:37.235Z,18.68
2022-08-30T21:18:05.718Z,18.70
2022-08-30T21:20:33.703Z,18.70
2022-08-30T21:23:01.269Z,18.71
2022-08-30T21:25:30.843Z,18.72
2022-08-30T21:27:58.486Z,18.66
2022-08-30T21:30:27.443Z,18.62
2022-08-30T21:32:55.067Z,18.59
2022-08-30T21:35:45.884Z,18.57
2022-08-30T21:38:14.117Z,18.54
2022-08-30T21:40:42.293Z,18.53
2022-08-30T21:43:10.668Z,18.46
2022-08-30T21:45:40.303Z,18.40
2022-08-30T21:48:08.093Z,18.36
2022-08-30T21:50:39.711Z,18.36
2022-08-30T21:53:07.480Z,18.37
2022-08-30T21:55:35.096Z,18.36
2022-08-30T21:58:03.570Z,18.43
2022-08-30T22:00:31.876Z,18.42
2022-08-30T22:03:00.902Z,18.37
2022-08-30T22:05:28.761Z,18.28
2022-08-30T22:07:56.443Z,18.23
2022-08-30T22:10:25.160Z,18.23
2022-08-30T22:12:52.779Z,18.25
2022-08-30T22:15:20.434Z,18.21
2022-08-30T22:17:47.999Z,18.20
2022-08-30T22:20:18.670Z,18.19
2022-08-30T22:22:46.528Z,18.12
2022-08-30T22:25:15.412Z,18.14
2022-08-30T22:27:43.176Z,18.20
2022-08-30T22:30:11.642Z,18.22
2022-08-30T22:32:40.049Z,18.22
2022-08-30T22:35:08.835Z,18.09
2022-08-30T22:37:37.802Z,18.05
2022-08-30T22:40:06.053Z,18.06
2022-08-30T22:42:33.920Z,18.03
2022-08-30T22:45:01.541Z,18.02
2022-08-30T22:47:29.205Z,18.00
2022-08-30T22:49:56.808Z,17.91
2022-08-30T22:52:25.444Z,17.85
2022-08-30T22:54:54.518Z,17.84
2022-08-30T22:57:22.143Z,17.82
2022-08-30T22:59:49.862Z,17.79
